sensor_id;sensor_type;location;lat;lon;timestamp;temperature;humidity
23116;DHT22;11727;52.134;5.052;2024-02-14T00:00:01;8.10;99.90
23116;DHT22;11727;52.134;5.052;2024-02-14T00:02:27;8.20;99.90
23116;DHT22;11727;52.134;5.052;2024-02-14T00:04:53;8.20;99.90
23116;DHT22;11727;52.134;5.052;2024-02-14T00:07:19;8.20;99.90
23116;DHT22;11727;52.134;5.052;2024-02-14T00:09:44;8.20;99.90
23116;DHT22;11727;52.134;5.052;2024-02-14T00:12:10;8.20;99.90
23116;DHT22;11727;52.134;5.052;2024-02-14T00:14:37;8.30;99.90
23116;DHT22;11727;52.134;5.052;2024-02-14T00:17:03;8.30;99.90
23116;DHT22;11727;52.134;5.052;2024-02-14T00:19:29;8.30;99.90
23116;DHT22;11727;52.134;5.052;2024-02-14T00:21:54;8.30;99.90
23116;DHT22;11727;52.134;5.052;2024-02-14T00:24:20;8.40;99.90
23116;DHT22;11727;52.134;5.052;2024-02-14T00:26:45;8.40;99.90
23116;DHT22;11727;52.134;5.052;2024-02-14T00:29:11;8.40;99.90
23116;DHT22;11727;52.134;5.052;2024-02-14T00:31:37;8.40;99.90
23116;DHT22;11727;52.134;5.052;2024-02-14T00:34:02;8.40;99.90
23116;DHT22;11727;52.134;5.052;2024-02-14T00:36:28;8.50;99.90
23116;DHT22;11727;52.134;5.052;2024-02-14T00:38:53;8.50;99.90
23116;DHT22;11727;52.134;5.052;2024-02-14T00:41:19;8.50;99.90
23116;DHT22;11727;52.134;5.052;2024-02-14T00:43:44;8.50;99.90
23116;DHT22;11727;52.134;5.052;2024-02-14T00:46:15;8.60;99.90
23116;DHT22;11727;52.134;5.052;2024-02-14T00:48:40;8.60;99.90
23116;DHT22;11727;52.134;5.052;2024-02-14T00:51:06;8.70;99.90
23116;DHT22;11727;52.134;5.052;2024-02-14T00:53:32;8.80;99.90
23116;DHT22;11727;52.134;5.052;2024-02-14T00:55:57;8.80;99.90
23116;DHT22;11727;52.134;5.052;2024-02-14T00:58:23;8.90;99.90
23116;DHT22;11727;52.134;5.052;2024-02-14T01:00:48;8.80;99.90
23116;DHT22;11727;52.134;5.052;2024-02-14T01:03:14;8.90;99.90
23116;DHT22;11727;52.134;5.052;2024-02-14T01:05:41;8.80;99.90
23116;DHT22;11727;52.134;5.052;2024-02-14T01:08:07;8.90;99.90
23116;DHT22;11727;52.134;5.052;2024-02-14T01:10:33;8.90;99.90
23116;DHT22;11727;52.134;5.052;2024-02-14T01:12:58;8.90;99.90
23116;DHT22;11727;52.134;5.052;2024-02-14T01:15:24;9.00;99.90
23116;DHT22;11727;52.134;5.052;2024-02-14T01:17:49;9.00;99.90
23116;DHT22;11727;52.134;5.052;2024-02-14T01:20:15;9.00;99.90
23116;DHT22;11727;52.134;5.052;2024-02-14T01:22:41;9.00;99.90
23116;DHT22;11727;52.134;5.052;2024-02-14T01:25:06;9.00;99.90
23116;DHT22;11727;52.134;5.052;2024-02-14T01:27:32;9.00;99.90
23116;DHT22;11727;52.134;5.052;2024-02-14T01:29:57;9.00;99.90
23116;DHT22;11727;52.134;5.052;2024-02-14T01:32:23;9.10;99.90
23116;DHT22;11727;52.134;5.052;2024-02-14T01:34:49;9.10;99.90
23116;DHT22;11727;52.134;5.052;2024-02-14T01:37:14;9.10;99.90
23116;DHT22;11727;52.134;5.052;2024-02-14T01:39:40;9.10;99.90
23116;DHT22;11727;52.134;5.052;2024-02-14T01:42:05;9.10;99.90
23116;DHT22;11727;52.134;5.052;2024-02-14T01:44:32;9.10;99.90
23116;DHT22;11727;52.134;5.052;2024-02-14T01:46:58;9.20;99.90
23116;DHT22;11727;52.134;5.052;2024-02-14T01:49:24;9.20;99.90
23116;DHT22;11727;52.134;5.052;2024-02-14T01:51:52;9.20;99.90
23116;DHT22;11727;52.134;5.052;2024-02-14T01:54:18;9.20;99.90
23116;DHT22;11727;52.134;5.052;2024-02-14T01:56:43;9.20;99.90
23116;DHT22;11727;52.134;5.052;2024-02-14T01:59:10;9.30;99.90
23116;DHT22;11727;52.134;5.052;2024-02-14T02:01:36;9.20;99.90
23116;DHT22;11727;52.134;5.052;2024-02-14T02:04:01;9.30;99.90
23116;DHT22;11727;52.134;5.052;2024-02-14T02:06:27;9.20;99.90
23116;DHT22;11727;52.134;5.052;2024-02-14T02:08:53;9.30;99.90
23116;DHT22;11727;52.134;5.052;2024-02-14T02:11:19;9.30;99.90
23116;DHT22;11727;52.134;5.052;2024-02-14T02:13:45;9.30;99.90
23116;DHT22;11727;52.134;5.052;2024-02-14T02:16:11;9.30;99.90
23116;DHT22;11727;52.134;5.052;2024-02-14T02:18:37;9.30;99.90
23116;DHT22;11727;52.134;5.052;2024-02-14T02:21:02;9.30;99.90
23116;DHT22;11727;52.134;5.052;2024-02-14T02:23:35;9.30;99.90
23116;DHT22;11727;52.134;5.052;2024-02-14T02:26:01;9.30;99.90
23116;DHT22;11727;52.134;5.052;2024-02-14T02:28:26;9.30;99.90
23116;DHT22;11727;52.134;5.052;2024-02-14T02:30:52;9.30;99.90
23116;DHT22;11727;52.134;5.052;2024-02-14T02:33:18;9.30;99.90
23116;DHT22;11727;52.134;5.052;2024-02-14T02:35:44;9.30;99.90
23116;DHT22;11727;52.134;5.052;2024-02-14T02:38:11;9.30;99.90
23116;DHT22;11727;52.134;5.052;2024-02-14T02:40:36;9.30;99.90
23116;DHT22;11727;52.134;5.052;2024-02-14T02:43:02;9.30;99.90
23116;DHT22;11727;52.134;5.052;2024-02-14T02:45:28;9.40;99.90
23116;DHT22;11727;52.134;5.052;2024-02-14T02:47:54;9.30;99.90
23116;DHT22;11727;52.134;5.052;2024-02-14T02:50:20;9.30;99.90
23116;DHT22;11727;52.134;5.052;2024-02-14T02:52:47;9.30;99.90
23116;DHT22;11727;52.134;5.052;2024-02-14T02:55:13;9.30;99.90
23116;DHT22;11727;52.134;5.052;2024-02-14T02:57:40;9.40;99.90
23116;DHT22;11727;52.134;5.052;2024-02-14T03:00:06;9.40;99.90
23116;DHT22;11727;52.134;5.052;2024-02-14T03:02:33;9.40;99.90
23116;DHT22;11727;52.134;5.052;2024-02-14T03:04:59;9.40;99.90
23116;DHT22;11727;52.134;5.052;2024-02-14T03:07:25;9.40;99.90
23116;DHT22;11727;52.134;5.052;2024-02-14T03:09:51;9.40;99.90
23116;DHT22;11727;52.134;5.052;2024-02-14T03:12:17;9.40;99.90
23116;DHT22;11727;52.134;5.052;2024-02-14T03:14:44;9.50;99.90
23116;DHT22;11727;52.134;5.052;2024-02-14T03:17:09;9.50;99.90
23116;DHT22;11727;52.134;5.052;2024-02-14T03:19:35;9.50;99.90
23116;DHT22;11727;52.134;5.052;2024-02-14T03:22:04;9.50;99.90
23116;DHT22;11727;52.134;5.052;2024-02-14T03:24:31;9.50;99.90
23116;DHT22;11727;52.134;5.052;2024-02-14T03:26:56;9.50;99.90
23116;DHT22;11727;52.134;5.052;2024-02-14T03:29:22;9.50;99.90
23116;DHT22;11727;52.134;5.052;2024-02-14T03:31:47;9.50;99.90
23116;DHT22;11727;52.134;5.052;2024-02-14T03:34:13;9.60;99.90
23116;DHT22;11727;52.134;5.052;2024-02-14T03:36:39;9.50;99.90
23116;DHT22;11727;52.134;5.052;2024-02-14T03:39:05;9.60;99.90
23116;DHT22;11727;52.134;5.052;2024-02-14T03:41:31;9.60;99.90
23116;DHT22;11727;52.134;5.052;2024-02-14T03:43:56;9.60;99.90
23116;DHT22;11727;52.134;5.052;2024-02-14T03:46:23;9.60;99.90
23116;DHT22;11727;52.134;5.052;2024-02-14T03:48:49;9.60;99.90
23116;DHT22;11727;52.134;5.052;2024-02-14T03:51:15;9.60;99.90
23116;DHT22;11727;52.134;5.052;2024-02-14T03:53:41;9.70;99.90
23116;DHT22;11727;52.134;5.052;2024-02-14T03:56:07;9.70;99.90
23116;DHT22;11727;52.134;5.052;2024-02-14T03:58:32;9.70;99.90
23116;DHT22;11727;52.134;5.052;2024-02-14T04:01:00;9.70;99.90
23116;DHT22;11727;52.134;5.052;2024-02-14T04:03:26;9.70;99.90
23116;DHT22;11727;52.134;5.052;2024-02-14T04:05:54;9.70;99.90
23116;DHT22;11727;52.134;5.052;2024-02-14T04:08:19;9.70;99.90
23116;DHT22;11727;52.134;5.052;2024-02-14T04:10:45;9.70;99.90
23116;DHT22;11727;52.134;5.052;2024-02-14T04:13:11;9.80;99.90
23116;DHT22;11727;52.134;5.052;2024-02-14T04:15:36;9.80;99.90
23116;DHT22;11727;52.134;5.052;2024-02-14T04:18:02;9.80;99.90
23116;DHT22;11727;52.134;5.052;2024-02-14T04:20:29;9.80;99.90
23116;DHT22;11727;52.134;5.052;2024-02-14T04:22:55;9.80;99.90
23116;DHT22;11727;52.134;5.052;2024-02-14T04:25:20;9.80;99.90
23116;DHT22;11727;52.134;5.052;2024-02-14T04:27:46;9.80;99.90
23116;DHT22;11727;52.134;5.052;2024-02-14T04:30:11;9.80;99.90
23116;DHT22;11727;52.134;5.052;2024-02-14T04:32:37;9.90;99.90
23116;DHT22;11727;52.134;5.052;2024-02-14T04:35:03;9.90;99.90
23116;DHT22;11727;52.134;5.052;2024-02-14T04:37:29;9.90;99.90
23116;DHT22;11727;52.134;5.052;2024-02-14T04:39:54;9.90;99.90
23116;DHT22;11727;52.134;5.052;2024-02-14T04:42:20;9.90;99.90
23116;DHT22;11727;52.134;5.052;2024-02-14T04:44:45;9.90;99.90
23116;DHT22;11727;52.134;5.052;2024-02-14T04:47:11;9.90;99.90
23116;DHT22;11727;52.134;5.052;2024-02-14T04:49:36;9.90;99.90
23116;DHT22;11727;52.134;5.052;2024-02-14T04:52:02;9.90;99.90
23116;DHT22;11727;52.134;5.052;2024-02-14T04:54:28;9.90;99.90
23116;DHT22;11727;52.134;5.052;2024-02-14T04:56:54;10.00;99.90
23116;DHT22;11727;52.134;5.052;2024-02-14T04:59:19;10.00;99.90
23116;DHT22;11727;52.134;5.052;2024-02-14T05:01:45;10.00;99.90
23116;DHT22;11727;52.134;5.052;2024-02-14T05:04:11;10.00;99.90
23116;DHT22;11727;52.134;5.052;2024-02-14T05:06:38;10.00;99.90
23116;DHT22;11727;52.134;5.052;2024-02-14T05:09:03;10.00;99.90
23116;DHT22;11727;52.134;5.052;2024-02-14T05:11:29;10.00;99.90
23116;DHT22;11727;52.134;5.052;2024-02-14T05:13:55;10.10;99.90
23116;DHT22;11727;52.134;5.052;2024-02-14T05:16:20;10.00;99.90
23116;DHT22;11727;52.134;5.052;2024-02-14T05:18:46;10.00;99.90
23116;DHT22;11727;52.134;5.052;2024-02-14T05:21:11;10.00;99.90
23116;DHT22;11727;52.134;5.052;2024-02-14T05:23:37;10.10;99.90
23116;DHT22;11727;52.134;5.052;2024-02-14T05:26:03;10.10;99.90
23116;DHT22;11727;52.134;5.052;2024-02-14T05:28:28;10.00;99.90
23116;DHT22;11727;52.134;5.052;2024-02-14T05:30:56;10.10;99.90
23116;DHT22;11727;52.134;5.052;2024-02-14T05:33:21;10.10;99.90
23116;DHT22;11727;52.134;5.052;2024-02-14T05:35:48;10.10;99.90
23116;DHT22;11727;52.134;5.052;2024-02-14T05:38:13;10.10;99.90
23116;DHT22;11727;52.134;5.052;2024-02-14T05:40:39;10.10;99.90
23116;DHT22;11727;52.134;5.052;2024-02-14T05:43:05;10.10;99.90
23116;DHT22;11727;52.134;5.052;2024-02-14T05:45:32;10.10;99.90
23116;DHT22;11727;52.134;5.052;2024-02-14T05:47:58;10.10;99.90
23116;DHT22;11727;52.134;5.052;2024-02-14T05:50:23;10.20;99.90
23116;DHT22;11727;52.134;5.052;2024-02-14T05:52:49;10.10;99.90
23116;DHT22;11727;52.134;5.052;2024-02-14T05:55:14;10.20;99.90
23116;DHT22;11727;52.134;5.052;2024-02-14T05:57:40;10.10;99.90
23116;DHT22;11727;52.134;5.052;2024-02-14T06:00:06;10.20;99.90
23116;DHT22;11727;52.134;5.052;2024-02-14T06:02:31;10.20;99.90
23116;DHT22;11727;52.134;5.052;2024-02-14T06:04:57;10.10;99.90
23116;DHT22;11727;52.134;5.052;2024-02-14T06:07:22;10.20;99.90
23116;DHT22;11727;52.134;5.052;2024-02-14T06:09:48;10.20;99.90
23116;DHT22;11727;52.134;5.052;2024-02-14T06:12:13;10.20;99.90
23116;DHT22;11727;52.134;5.052;2024-02-14T06:14:39;10.20;99.90
23116;DHT22;11727;52.134;5.052;2024-02-14T06:17:04;10.20;99.90
23116;DHT22;11727;52.134;5.052;2024-02-14T06:19:30;10.20;99.90
23116;DHT22;11727;52.134;5.052;2024-02-14T06:21:56;10.20;99.90
23116;DHT22;11727;52.134;5.052;2024-02-14T06:24:21;10.30;99.90
23116;DHT22;11727;52.134;5.052;2024-02-14T06:26:47;10.30;99.90
23116;DHT22;11727;52.134;5.052;2024-02-14T06:29:12;10.20;99.90
23116;DHT22;11727;52.134;5.052;2024-02-14T06:31:38;10.30;99.90
23116;DHT22;11727;52.134;5.052;2024-02-14T06:34:03;10.30;99.90
23116;DHT22;11727;52.134;5.052;2024-02-14T06:36:30;10.30;99.90
23116;DHT22;11727;52.134;5.052;2024-02-14T06:38:55;10.30;99.90
23116;DHT22;11727;52.134;5.052;2024-02-14T06:41:21;10.30;99.90
23116;DHT22;11727;52.134;5.052;2024-02-14T06:43:46;10.30;99.90
23116;DHT22;11727;52.134;5.052;2024-02-14T06:46:12;10.30;99.90
23116;DHT22;11727;52.134;5.052;2024-02-14T06:48:38;10.30;99.90
23116;DHT22;11727;52.134;5.052;2024-02-14T06:51:03;10.30;99.90
23116;DHT22;11727;52.134;5.052;2024-02-14T06:53:29;10.30;99.90
23116;DHT22;11727;52.134;5.052;2024-02-14T06:55:55;10.30;99.90
23116;DHT22;11727;52.134;5.052;2024-02-14T06:58:21;10.30;99.90
23116;DHT22;11727;52.134;5.052;2024-02-14T07:00:47;10.30;99.90
23116;DHT22;11727;52.134;5.052;2024-02-14T07:03:12;10.30;99.90
23116;DHT22;11727;52.134;5.052;2024-02-14T07:05:37;10.30;99.90
23116;DHT22;11727;52.134;5.052;2024-02-14T07:08:03;10.30;99.90
23116;DHT22;11727;52.134;5.052;2024-02-14T07:10:29;10.30;99.90
23116;DHT22;11727;52.134;5.052;2024-02-14T07:12:55;10.30;99.90
23116;DHT22;11727;52.134;5.052;2024-02-14T07:15:20;10.30;99.90
23116;DHT22;11727;52.134;5.052;2024-02-14T07:17:46;10.30;99.90
23116;DHT22;11727;52.134;5.052;2024-02-14T07:20:11;10.30;99.90
23116;DHT22;11727;52.134;5.052;2024-02-14T07:22:37;10.40;99.90
23116;DHT22;11727;52.134;5.052;2024-02-14T07:25:03;10.40;99.90
23116;DHT22;11727;52.134;5.052;2024-02-14T07:27:30;10.40;99.90
23116;DHT22;11727;52.134;5.052;2024-02-14T07:29:56;10.40;99.90
23116;DHT22;11727;52.134;5.052;2024-02-14T07:32:21;10.40;99.90
23116;DHT22;11727;52.134;5.052;2024-02-14T07:34:47;10.40;99.90
23116;DHT22;11727;52.134;5.052;2024-02-14T07:37:12;10.40;99.90
23116;DHT22;11727;52.134;5.052;2024-02-14T07:39:40;10.40;99.90
23116;DHT22;11727;52.134;5.052;2024-02-14T07:42:05;10.40;99.90
23116;DHT22;11727;52.134;5.052;2024-02-14T07:44:31;10.40;99.90
23116;DHT22;11727;52.134;5.052;2024-02-14T07:46:56;10.40;99.90
23116;DHT22;11727;52.134;5.052;2024-02-14T07:49:22;10.40;99.90
23116;DHT22;11727;52.134;5.052;2024-02-14T07:51:47;10.40;99.90
23116;DHT22;11727;52.134;5.052;2024-02-14T07:54:13;10.40;99.90
23116;DHT22;11727;52.134;5.052;2024-02-14T07:56:39;10.50;99.90
23116;DHT22;11727;52.134;5.052;2024-02-14T07:59:04;10.50;99.90
23116;DHT22;11727;52.134;5.052;2024-02-14T08:01:30;10.50;99.90
23116;DHT22;11727;52.134;5.052;2024-02-14T08:03:57;10.50;99.90
23116;DHT22;11727;52.134;5.052;2024-02-14T08:06:23;10.50;99.90
23116;DHT22;11727;52.134;5.052;2024-02-14T08:08:49;10.50;99.90
23116;DHT22;11727;52.134;5.052;2024-02-14T08:11:19;10.50;99.90
23116;DHT22;11727;52.134;5.052;2024-02-14T08:13:44;10.50;99.90
23116;DHT22;11727;52.134;5.052;2024-02-14T08:16:10;10.50;99.90
23116;DHT22;11727;52.134;5.052;2024-02-14T08:18:35;10.60;99.90
23116;DHT22;11727;52.134;5.052;2024-02-14T08:21:01;10.60;99.90
23116;DHT22;11727;52.134;5.052;2024-02-14T08:23:26;10.60;99.90
23116;DHT22;11727;52.134;5.052;2024-02-14T08:25:52;10.60;99.90
23116;DHT22;11727;52.134;5.052;2024-02-14T08:28:17;10.60;99.90
23116;DHT22;11727;52.134;5.052;2024-02-14T08:30:46;10.60;99.90
23116;DHT22;11727;52.134;5.052;2024-02-14T08:33:12;10.60;99.90
23116;DHT22;11727;52.134;5.052;2024-02-14T08:35:41;10.60;99.90
23116;DHT22;11727;52.134;5.052;2024-02-14T08:38:06;10.60;99.90
23116;DHT22;11727;52.134;5.052;2024-02-14T08:40:33;10.60;99.90
23116;DHT22;11727;52.134;5.052;2024-02-14T08:42:59;10.60;99.90
23116;DHT22;11727;52.134;5.052;2024-02-14T08:45:24;10.70;99.90
23116;DHT22;11727;52.134;5.052;2024-02-14T08:47:50;10.60;99.90
23116;DHT22;11727;52.134;5.052;2024-02-14T08:50:16;10.60;99.90
23116;DHT22;11727;52.134;5.052;2024-02-14T08:52:42;10.60;99.90
23116;DHT22;11727;52.134;5.052;2024-02-14T08:55:08;10.70;99.90
23116;DHT22;11727;52.134;5.052;2024-02-14T08:57:40;10.70;99.90
23116;DHT22;11727;52.134;5.052;2024-02-14T09:00:06;10.70;99.90
23116;DHT22;11727;52.134;5.052;2024-02-14T09:02:33;10.60;99.90
23116;DHT22;11727;52.134;5.052;2024-02-14T09:05:00;10.70;99.90
23116;DHT22;11727;52.134;5.052;2024-02-14T09:07:26;10.70;99.90
23116;DHT22;11727;52.134;5.052;2024-02-14T09:09:52;10.70;99.90
23116;DHT22;11727;52.134;5.052;2024-02-14T09:12:17;10.70;99.90
23116;DHT22;11727;52.134;5.052;2024-02-14T09:14:43;10.70;99.90
23116;DHT22;11727;52.134;5.052;2024-02-14T09:17:08;10.70;99.90
23116;DHT22;11727;52.134;5.052;2024-02-14T09:19:35;10.70;99.90
23116;DHT22;11727;52.134;5.052;2024-02-14T09:22:01;10.70;99.90
23116;DHT22;11727;52.134;5.052;2024-02-14T09:24:26;10.70;99.90
23116;DHT22;11727;52.134;5.052;2024-02-14T09:26:52;10.80;99.90
23116;DHT22;11727;52.134;5.052;2024-02-14T09:29:17;10.80;99.90
23116;DHT22;11727;52.134;5.052;2024-02-14T09:31:43;10.80;99.90
23116;DHT22;11727;52.134;5.052;2024-02-14T09:34:12;10.80;99.90
23116;DHT22;11727;52.134;5.052;2024-02-14T09:36:40;10.80;99.90
23116;DHT22;11727;52.134;5.052;2024-02-14T09:39:05;10.80;99.90
23116;DHT22;11727;52.134;5.052;2024-02-14T09:41:40;10.80;99.90
23116;DHT22;11727;52.134;5.052;2024-02-14T09:44:08;10.80;99.90
23116;DHT22;11727;52.134;5.052;2024-02-14T09:46:35;10.80;99.90
23116;DHT22;11727;52.134;5.052;2024-02-14T09:49:00;10.80;99.90
23116;DHT22;11727;52.134;5.052;2024-02-14T09:51:28;10.90;99.90
23116;DHT22;11727;52.134;5.052;2024-02-14T09:53:54;10.90;99.90
23116;DHT22;11727;52.134;5.052;2024-02-14T09:56:20;10.90;99.90
23116;DHT22;11727;52.134;5.052;2024-02-14T09:58:48;10.90;99.90
23116;DHT22;11727;52.134;5.052;2024-02-14T10:01:20;10.90;99.90
23116;DHT22;11727;52.134;5.052;2024-02-14T10:03:52;10.90;99.90
23116;DHT22;11727;52.134;5.052;2024-02-14T10:06:18;10.90;99.90
23116;DHT22;11727;52.134;5.052;2024-02-14T10:08:47;10.90;99.90
23116;DHT22;11727;52.134;5.052;2024-02-14T10:11:14;10.90;99.90
23116;DHT22;11727;52.134;5.052;2024-02-14T10:13:47;11.00;99.90
23116;DHT22;11727;52.134;5.052;2024-02-14T10:16:13;11.00;99.90
23116;DHT22;11727;52.134;5.052;2024-02-14T10:18:39;11.00;99.90
23116;DHT22;11727;52.134;5.052;2024-02-14T10:21:05;11.00;99.90
23116;DHT22;11727;52.134;5.052;2024-02-14T10:23:30;11.10;99.90
23116;DHT22;11727;52.134;5.052;2024-02-14T10:25:57;11.10;99.90
23116;DHT22;11727;52.134;5.052;2024-02-14T10:28:23;11.10;99.90
23116;DHT22;11727;52.134;5.052;2024-02-14T10:30:49;11.10;99.90
23116;DHT22;11727;52.134;5.052;2024-02-14T10:33:17;11.20;99.90
23116;DHT22;11727;52.134;5.052;2024-02-14T10:35:44;11.20;99.90
23116;DHT22;11727;52.134;5.052;2024-02-14T10:38:10;11.20;99.90
23116;DHT22;11727;52.134;5.052;2024-02-14T10:40:36;11.20;99.90
23116;DHT22;11727;52.134;5.052;2024-02-14T10:43:05;11.30;99.90
23116;DHT22;11727;52.134;5.052;2024-02-14T10:45:30;11.30;99.90
23116;DHT22;11727;52.134;5.052;2024-02-14T10:47:56;11.30;99.90
23116;DHT22;11727;52.134;5.052;2024-02-14T10:50:23;11.30;99.90
23116;DHT22;11727;52.134;5.052;2024-02-14T10:52:49;11.30;99.90
23116;DHT22;11727;52.134;5.052;2024-02-14T10:55:18;11.40;99.90
23116;DHT22;11727;52.134;5.052;2024-02-14T10:57:45;11.40;99.90
23116;DHT22;11727;52.134;5.052;2024-02-14T11:00:12;11.40;99.90
23116;DHT22;11727;52.134;5.052;2024-02-14T11:02:39;11.40;99.90
23116;DHT22;11727;52.134;5.052;2024-02-14T11:05:05;11.40;99.90
23116;DHT22;11727;52.134;5.052;2024-02-14T11:07:32;11.40;99.90
23116;DHT22;11727;52.134;5.052;2024-02-14T11:10:01;11.40;99.90
23116;DHT22;11727;52.134;5.052;2024-02-14T11:12:33;11.40;99.90
23116;DHT22;11727;52.134;5.052;2024-02-14T11:15:08;11.50;99.90
23116;DHT22;11727;52.134;5.052;2024-02-14T11:17:34;11.50;99.90
23116;DHT22;11727;52.134;5.052;2024-02-14T11:19:59;11.50;99.90
23116;DHT22;11727;52.134;5.052;2024-02-14T11:22:24;11.50;99.90
23116;DHT22;11727;52.134;5.052;2024-02-14T11:24:51;11.50;99.90
23116;DHT22;11727;52.134;5.052;2024-02-14T11:27:18;11.50;99.90
23116;DHT22;11727;52.134;5.052;2024-02-14T11:29:53;11.50;99.90
23116;DHT22;11727;52.134;5.052;2024-02-14T11:32:18;11.50;99.90
23116;DHT22;11727;52.134;5.052;2024-02-14T11:34:54;11.50;99.90
23116;DHT22;11727;52.134;5.052;2024-02-14T11:37:20;11.50;99.90
23116;DHT22;11727;52.134;5.052;2024-02-14T11:39:46;11.60;99.90
23116;DHT22;11727;52.134;5.052;2024-02-14T11:42:11;11.60;99.90
23116;DHT22;11727;52.134;5.052;2024-02-14T11:44:39;11.50;99.90
23116;DHT22;11727;52.134;5.052;2024-02-14T11:47:09;11.60;99.90
23116;DHT22;11727;52.134;5.052;2024-02-14T11:49:35;11.60;99.90
23116;DHT22;11727;52.134;5.052;2024-02-14T11:52:00;11.60;99.90
23116;DHT22;11727;52.134;5.052;2024-02-14T11:54:26;11.60;99.90
23116;DHT22;11727;52.134;5.052;2024-02-14T11:56:51;11.70;99.90
23116;DHT22;11727;52.134;5.052;2024-02-14T11:59:17;11.70;99.90
23116;DHT22;11727;52.134;5.052;2024-02-14T12:01:45;11.70;99.90
23116;DHT22;11727;52.134;5.052;2024-02-14T12:04:11;11.70;99.90
23116;DHT22;11727;52.134;5.052;2024-02-14T12:06:39;11.70;99.90
23116;DHT22;11727;52.134;5.052;2024-02-14T12:09:06;11.80;99.90
23116;DHT22;11727;52.134;5.052;2024-02-14T12:11:37;11.70;99.90
23116;DHT22;11727;52.134;5.052;2024-02-14T12:14:03;11.70;99.90
23116;DHT22;11727;52.134;5.052;2024-02-14T12:16:29;11.80;99.90
23116;DHT22;11727;52.134;5.052;2024-02-14T12:19:04;11.70;99.90
23116;DHT22;11727;52.134;5.052;2024-02-14T12:21:35;11.70;99.90
23116;DHT22;11727;52.134;5.052;2024-02-14T12:24:00;11.70;99.90
23116;DHT22;11727;52.134;5.052;2024-02-14T12:26:26;11.80;99.90
23116;DHT22;11727;52.134;5.052;2024-02-14T12:28:53;11.70;99.90
23116;DHT22;11727;52.134;5.052;2024-02-14T12:31:22;11.70;99.90
23116;DHT22;11727;52.134;5.052;2024-02-14T12:33:47;11.70;99.90
23116;DHT22;11727;52.134;5.052;2024-02-14T12:36:13;11.80;99.90
23116;DHT22;11727;52.134;5.052;2024-02-14T12:38:38;11.70;99.90
23116;DHT22;11727;52.134;5.052;2024-02-14T12:41:04;11.80;99.90
23116;DHT22;11727;52.134;5.052;2024-02-14T12:43:29;11.70;99.90
23116;DHT22;11727;52.134;5.052;2024-02-14T12:45:55;11.70;99.90
23116;DHT22;11727;52.134;5.052;2024-02-14T12:48:24;11.70;99.90
23116;DHT22;11727;52.134;5.052;2024-02-14T12:50:53;11.70;99.90
23116;DHT22;11727;52.134;5.052;2024-02-14T12:53:18;11.80;99.90
23116;DHT22;11727;52.134;5.052;2024-02-14T12:55:47;11.70;99.90
23116;DHT22;11727;52.134;5.052;2024-02-14T12:58:12;11.80;99.90
23116;DHT22;11727;52.134;5.052;2024-02-14T13:00:38;11.80;99.90
23116;DHT22;11727;52.134;5.052;2024-02-14T13:03:04;11.80;99.90
23116;DHT22;11727;52.134;5.052;2024-02-14T13:05:30;11.80;99.90
23116;DHT22;11727;52.134;5.052;2024-02-14T13:07:56;11.80;99.90
23116;DHT22;11727;52.134;5.052;2024-02-14T13:10:21;11.80;99.90
23116;DHT22;11727;52.134;5.052;2024-02-14T13:12:48;11.80;99.90
23116;DHT22;11727;52.134;5.052;2024-02-14T13:15:15;11.80;99.90
23116;DHT22;11727;52.134;5.052;2024-02-14T13:17:41;11.90;99.90
23116;DHT22;11727;52.134;5.052;2024-02-14T13:20:06;11.90;99.90
23116;DHT22;11727;52.134;5.052;2024-02-14T13:22:32;11.90;99.90
23116;DHT22;11727;52.134;5.052;2024-02-14T13:24:58;11.90;99.90
23116;DHT22;11727;52.134;5.052;2024-02-14T13:27:26;11.90;99.90
23116;DHT22;11727;52.134;5.052;2024-02-14T13:29:51;11.90;99.90
23116;DHT22;11727;52.134;5.052;2024-02-14T13:32:17;12.00;99.90
23116;DHT22;11727;52.134;5.052;2024-02-14T13:34:42;12.00;99.90
23116;DHT22;11727;52.134;5.052;2024-02-14T13:37:11;11.90;99.90
23116;DHT22;11727;52.134;5.052;2024-02-14T13:39:36;11.90;99.90
23116;DHT22;11727;52.134;5.052;2024-02-14T13:42:02;11.90;99.90
23116;DHT22;11727;52.134;5.052;2024-02-14T13:44:27;12.00;99.90
23116;DHT22;11727;52.134;5.052;2024-02-14T13:46:53;12.00;99.90
23116;DHT22;11727;52.134;5.052;2024-02-14T13:49:19;12.00;99.90
23116;DHT22;11727;52.134;5.052;2024-02-14T13:51:48;12.00;99.90
23116;DHT22;11727;52.134;5.052;2024-02-14T13:54:15;12.00;99.90
23116;DHT22;11727;52.134;5.052;2024-02-14T13:56:41;12.00;99.90
23116;DHT22;11727;52.134;5.052;2024-02-14T13:59:06;12.00;99.90
23116;DHT22;11727;52.134;5.052;2024-02-14T14:01:32;12.00;99.90
23116;DHT22;11727;52.134;5.052;2024-02-14T14:03:57;12.00;99.90
23116;DHT22;11727;52.134;5.052;2024-02-14T14:06:23;12.00;99.90
23116;DHT22;11727;52.134;5.052;2024-02-14T14:08:49;12.00;99.90
23116;DHT22;11727;52.134;5.052;2024-02-14T14:11:15;12.10;99.90
23116;DHT22;11727;52.134;5.052;2024-02-14T14:13:40;12.00;99.90
23116;DHT22;11727;52.134;5.052;2024-02-14T14:16:06;12.10;99.90
23116;DHT22;11727;52.134;5.052;2024-02-14T14:18:31;12.10;99.90
23116;DHT22;11727;52.134;5.052;2024-02-14T14:20:57;12.10;99.90
23116;DHT22;11727;52.134;5.052;2024-02-14T14:23:23;12.10;99.90
23116;DHT22;11727;52.134;5.052;2024-02-14T14:25:48;12.10;99.90
23116;DHT22;11727;52.134;5.052;2024-02-14T14:28:14;12.10;99.90
23116;DHT22;11727;52.134;5.052;2024-02-14T14:30:40;12.20;99.90
23116;DHT22;11727;52.134;5.052;2024-02-14T14:33:06;12.20;99.90
23116;DHT22;11727;52.134;5.052;2024-02-14T14:35:33;12.20;99.90
23116;DHT22;11727;52.134;5.052;2024-02-14T14:38:02;12.20;99.90
23116;DHT22;11727;52.134;5.052;2024-02-14T14:40:32;12.20;99.90
23116;DHT22;11727;52.134;5.052;2024-02-14T14:42:57;12.20;99.90
23116;DHT22;11727;52.134;5.052;2024-02-14T14:45:23;12.30;99.90
23116;DHT22;11727;52.134;5.052;2024-02-14T14:47:49;12.20;99.90
23116;DHT22;11727;52.134;5.052;2024-02-14T14:50:15;12.30;99.90
23116;DHT22;11727;52.134;5.052;2024-02-14T14:52:45;12.30;99.90
23116;DHT22;11727;52.134;5.052;2024-02-14T14:55:11;12.20;99.90
23116;DHT22;11727;52.134;5.052;2024-02-14T14:57:36;12.20;99.90
23116;DHT22;11727;52.134;5.052;2024-02-14T15:00:09;12.20;99.90
23116;DHT22;11727;52.134;5.052;2024-02-14T15:02:38;12.20;99.90
23116;DHT22;11727;52.134;5.052;2024-02-14T15:05:09;12.20;99.90
23116;DHT22;11727;52.134;5.052;2024-02-14T15:07:38;12.30;99.90
23116;DHT22;11727;52.134;5.052;2024-02-14T15:10:04;12.20;99.90
23116;DHT22;11727;52.134;5.052;2024-02-14T15:12:30;12.20;99.90
23116;DHT22;11727;52.134;5.052;2024-02-14T15:14:56;12.20;99.90
23116;DHT22;11727;52.134;5.052;2024-02-14T15:17:22;12.30;99.90
23116;DHT22;11727;52.134;5.052;2024-02-14T15:19:48;12.20;99.90
23116;DHT22;11727;52.134;5.052;2024-02-14T15:22:14;12.30;99.90
23116;DHT22;11727;52.134;5.052;2024-02-14T15:24:39;12.20;99.90
23116;DHT22;11727;52.134;5.052;2024-02-14T15:27:11;12.30;99.90